createdAt,value
2023-02-13T00:01:00.019Z,99541.25
2023-02-13T00:03:26.545Z,99515.72
2023-02-13T00:05:53.085Z,99534.16
2023-02-13T00:08:19.575Z,99520.72
2023-02-13T00:10:48.057Z,99513.72
2023-02-13T00:13:14.557Z,99532.56
2023-02-13T00:15:41.135Z,99506.50
2023-02-13T00:18:07.679Z,99532.19
2023-02-13T00:20:34.253Z,99526.47
2023-02-13T00:23:00.803Z,99520.44
2023-02-13T00:25:27.919Z,99532.75
2023-02-13T00:27:54.558Z,99529.66
2023-02-13T00:30:21.573Z,99536.47
2023-02-13T00:32:50.982Z,99535.25
2023-02-13T00:35:20.918Z,99534.53
2023-02-13T00:37:49.588Z,99516.63
2023-02-13T00:40:16.103Z,99514.00
2023-02-13T00:42:42.573Z,99526.91
2023-02-13T00:45:09.459Z,99525.00
2023-02-13T00:47:35.881Z,99525.78
2023-02-13T00:50:02.300Z,99518.84
2023-02-13T00:52:28.785Z,99516.41
2023-02-13T00:54:55.286Z,99522.63
2023-02-13T00:57:21.721Z,99526.00
2023-02-13T00:59:51.156Z,99531.75
2023-02-13T01:02:20.382Z,99521.31
2023-02-13T01:04:46.866Z,99515.28
2023-02-13T01:07:15.274Z,99528.78
2023-02-13T01:09:42.365Z,99524.50
2023-02-13T01:12:08.826Z,99529.59
2023-02-13T01:14:35.332Z,99533.03
2023-02-13T01:17:01.855Z,99535.16
2023-02-13T01:19:28.426Z,99542.69
2023-02-13T01:21:54.913Z,99541.00
2023-02-13T01:24:21.676Z,99535.38
2023-02-13T01:26:48.116Z,99528.13
2023-02-13T01:29:14.832Z,99536.06
2023-02-13T01:31:41.404Z,99529.78
2023-02-13T01:34:07.918Z,99524.31
2023-02-13T01:36:34.525Z,99531.09
2023-02-13T01:39:01.077Z,99542.84
2023-02-13T01:41:27.791Z,99533.31
2023-02-13T01:43:57.005Z,99545.31
2023-02-13T01:46:35.377Z,99550.31
2023-02-13T01:49:10.087Z,99539.50
2023-02-13T01:51:37.365Z,99543.75
2023-02-13T01:54:23.199Z,99546.25
2023-02-13T01:56:59.155Z,99549.78
2023-02-13T01:59:33.102Z,99521.16
2023-02-13T02:02:00.698Z,99550.84
2023-02-13T02:04:32.753Z,99551.84
2023-02-13T02:07:04.619Z,99545.78
2023-02-13T02:09:36.779Z,99559.13
2023-02-13T02:12:11.624Z,99545.88
2023-02-13T02:14:40.838Z,99546.84
2023-02-13T02:17:07.577Z,99549.44
2023-02-13T02:19:44.724Z,99555.91
2023-02-13T02:22:36.090Z,99555.16
2023-02-13T02:25:31.835Z,99552.53
2023-02-13T02:28:10.246Z,99556.00
2023-02-13T02:31:04.224Z,99564.47
2023-02-13T02:33:56.361Z,99544.16
2023-02-13T02:36:43.246Z,99555.88
2023-02-13T02:39:49.932Z,99565.41
2023-02-13T02:42:19.263Z,99556.50
2023-02-13T02:45:21.833Z,99548.38
2023-02-13T02:48:18.214Z,99526.59
2023-02-13T02:51:07.168Z,99556.06
2023-02-13T02:53:43.747Z,99543.75
2023-02-13T02:56:21.432Z,99552.44
2023-02-13T02:59:13.610Z,99539.69
2023-02-13T03:02:00.371Z,99544.16
2023-02-13T03:04:52.824Z,99536.16
2023-02-13T03:07:19.797Z,99535.81
2023-02-13T03:10:14.325Z,99530.44
2023-02-13T03:13:05.876Z,99537.50
2023-02-13T03:15:34.701Z,99537.44
2023-02-13T03:18:20.042Z,99515.19
2023-02-13T03:21:14.453Z,99537.63
2023-02-13T03:24:16.130Z,99536.56
2023-02-13T03:26:55.317Z,99538.22
2023-02-13T03:30:01.054Z,99525.47
2023-02-13T03:32:41.912Z,99538.38
2023-02-13T03:35:30.771Z,99539.38
2023-02-13T03:38:05.543Z,99529.72
2023-02-13T03:41:03.304Z,99541.41
2023-02-13T03:43:36.289Z,99527.09
2023-02-13T03:46:03.987Z,99534.09
2023-02-13T03:48:53.233Z,99536.84
2023-02-13T03:51:26.571Z,99540.47
2023-02-13T03:54:01.613Z,99534.69
2023-02-13T03:56:50.909Z,99526.78
2023-02-13T03:59:30.603Z,99518.63
2023-02-13T04:02:08.508Z,99525.94
2023-02-13T04:04:48.874Z,99528.50
2023-02-13T04:07:31.752Z,99519.22
2023-02-13T04:10:18.341Z,99535.06
2023-02-13T04:13:08.073Z,99541.78
2023-02-13T04:16:18.284Z,99543.00
2023-02-13T04:18:45.460Z,99528.28
2023-02-13T04:21:11.990Z,99538.50
2023-02-13T04:23:38.414Z,99534.22
2023-02-13T04:26:14.089Z,99549.69
2023-02-13T04:28:40.671Z,99548.88
2023-02-13T04:31:07.239Z,99539.69
2023-02-13T04:33:33.701Z,99553.25
2023-02-13T04:36:01.529Z,99540.69
2023-02-13T04:38:28.044Z,99548.06
2023-02-13T04:40:54.531Z,99541.84
2023-02-13T04:43:21.168Z,99549.66
2023-02-13T04:45:50.994Z,99553.34
2023-02-13T04:48:17.752Z,99551.97
2023-02-13T04:50:44.293Z,99557.56
2023-02-13T04:53:10.872Z,99551.78
2023-02-13T04:55:37.366Z,99515.13
2023-02-13T04:58:03.858Z,99549.81
2023-02-13T05:00:30.354Z,99537.88
2023-02-13T05:03:07.730Z,99545.06
2023-02-13T05:05:35.276Z,99557.81
2023-02-13T05:08:04.776Z,99540.44
2023-02-13T05:10:34.006Z,99539.06
2023-02-13T05:13:00.462Z,99552.66
2023-02-13T05:15:27.110Z,99537.66
2023-02-13T05:17:53.653Z,99530.75
2023-02-13T05:20:20.396Z,99539.16
2023-02-13T05:23:10.850Z,99558.03
2023-02-13T05:25:39.500Z,99551.91
2023-02-13T05:28:26.707Z,99557.09
2023-02-13T05:30:53.282Z,99552.84
2023-02-13T05:33:19.732Z,99555.81
2023-02-13T05:35:46.195Z,99560.06
2023-02-13T05:38:12.645Z,99549.19
2023-02-13T05:40:39.066Z,99567.06
2023-02-13T05:43:05.887Z,99551.38
2023-02-13T05:45:32.411Z,99571.06
2023-02-13T05:47:58.817Z,99561.38
2023-02-13T05:50:25.340Z,99570.28
2023-02-13T05:52:51.758Z,99566.56
2023-02-13T05:55:18.217Z,99574.63
2023-02-13T05:57:44.831Z,99560.88
2023-02-13T06:00:11.832Z,99571.03
2023-02-13T06:02:38.318Z,99579.63
2023-02-13T06:05:08.725Z,99574.53
2023-02-13T06:07:38.261Z,99556.75
2023-02-13T06:10:08.367Z,99569.00
2023-02-13T06:12:38.212Z,99587.78
2023-02-13T06:15:07.924Z,99584.97
2023-02-13T06:17:37.249Z,99572.81
2023-02-13T06:20:06.745Z,99570.94
2023-02-13T06:22:33.220Z,99581.31
2023-02-13T06:24:59.660Z,99572.81
2023-02-13T06:27:26.113Z,99590.91
2023-02-13T06:29:52.679Z,99579.06
2023-02-13T06:32:19.113Z,99567.75
2023-02-13T06:34:45.583Z,99572.28
2023-02-13T06:37:12.185Z,99575.66
2023-02-13T06:39:38.701Z,99589.50
2023-02-13T06:42:08.288Z,99568.19
2023-02-13T06:44:37.563Z,99588.13
2023-02-13T06:47:06.429Z,99582.09
2023-02-13T06:49:32.907Z,99578.41
2023-02-13T06:51:59.556Z,99599.81
2023-02-13T06:54:41.037Z,99584.50
2023-02-13T06:57:11.420Z,99593.50
2023-02-13T06:59:37.976Z,99595.59
2023-02-13T07:02:07.176Z,99593.03
2023-02-13T07:04:35.960Z,99594.03
2023-02-13T07:07:02.471Z,99580.13
2023-02-13T07:09:29.002Z,99615.03
2023-02-13T07:11:55.485Z,99585.41
2023-02-13T07:14:22.061Z,99611.03
2023-02-13T07:16:48.633Z,99617.66
2023-02-13T07:19:15.171Z,99604.53
2023-02-13T07:21:41.677Z,99578.84
2023-02-13T07:24:08.396Z,99584.13
2023-02-13T07:26:38.974Z,99557.00
2023-02-13T07:29:11.933Z,99547.88
2023-02-13T07:31:39.770Z,99614.06
2023-02-13T07:34:08.934Z,99586.22
2023-02-13T07:36:38.035Z,99625.53
2023-02-13T07:39:06.766Z,99611.47
2023-02-13T07:41:35.129Z,99601.88
2023-02-13T07:44:01.587Z,99570.25
2023-02-13T07:46:28.091Z,99579.38
2023-02-13T07:48:54.598Z,99579.63
2023-02-13T07:51:25.189Z,99599.38
2023-02-13T07:53:56.565Z,99595.94
2023-02-13T07:56:23.152Z,99606.09
2023-02-13T07:58:49.630Z,99561.59
2023-02-13T08:01:17.243Z,99586.66
2023-02-13T08:03:43.730Z,99588.69
2023-02-13T08:06:10.335Z,99578.25
2023-02-13T08:08:38.396Z,99594.72
2023-02-13T08:11:41.050Z,99595.63
2023-02-13T08:14:07.606Z,99592.53
2023-02-13T08:16:36.263Z,99594.28
2023-02-13T08:19:02.840Z,99601.00
2023-02-13T08:21:30.377Z,99593.53
2023-02-13T08:23:57.296Z,99598.69
2023-02-13T08:26:23.762Z,99607.13
2023-02-13T08:28:50.285Z,99605.91
2023-02-13T08:31:16.834Z,99608.81
2023-02-13T08:33:43.344Z,99608.28
2023-02-13T08:36:09.907Z,99617.44
2023-02-13T08:41:06.999Z,99605.78
2023-02-13T08:43:36.058Z,99629.47
2023-02-13T08:46:02.557Z,99613.38
2023-02-13T08:48:30.140Z,99585.00
2023-02-13T08:50:56.860Z,99600.31
2023-02-13T08:53:23.501Z,99619.91
2023-02-13T08:55:58.248Z,99621.31
2023-02-13T08:58:25.095Z,99607.28
2023-02-13T09:00:51.595Z,99598.69
2023-02-13T09:03:18.960Z,99613.44
2023-02-13T09:05:45.840Z,99612.56
2023-02-13T09:08:13.685Z,99597.72
2023-02-13T09:10:41.741Z,99613.53
2023-02-13T09:13:08.256Z,99600.38
2023-02-13T09:15:46.201Z,99612.09
2023-02-13T09:18:12.666Z,99589.94
2023-02-13T09:20:39.200Z,99590.50
2023-02-13T09:23:09.442Z,99597.72
2023-02-13T09:25:40.854Z,99613.38
2023-02-13T09:28:07.696Z,99621.44
2023-02-13T09:30:36.506Z,99597.84
2023-02-13T09:33:02.996Z,99589.91
2023-02-13T09:35:29.533Z,99582.22
2023-02-13T09:37:56.085Z,99600.41
2023-02-13T09:40:38.121Z,99616.38
2023-02-13T09:43:15.489Z,99615.34
2023-02-13T09:45:44.532Z,99610.13
2023-02-13T09:48:19.221Z,99615.47
2023-02-13T09:50:46.013Z,99613.66
2023-02-13T09:53:24.250Z,99613.47
2023-02-13T09:56:24.442Z,99628.72
2023-02-13T09:59:01.080Z,99610.78
2023-02-13T10:01:31.715Z,99622.84
2023-02-13T10:04:23.019Z,99626.84
2023-02-13T10:07:17.568Z,99612.13
2023-02-13T10:10:01.007Z,99628.78
2023-02-13T10:12:38.624Z,99626.44
2023-02-13T10:15:20.676Z,99614.28
2023-02-13T10:17:55.038Z,99617.47
2023-02-13T10:20:32.640Z,99616.50
2023-02-13T10:23:25.272Z,99617.81
2023-02-13T10:26:02.501Z,99613.50
2023-02-13T10:28:38.636Z,99619.03
2023-02-13T10:31:12.753Z,99612.66
2023-02-13T10:33:52.950Z,99612.66
2023-02-13T10:36:25.193Z,99602.47
2023-02-13T10:39:25.524Z,99609.28
2023-02-13T10:41:57.777Z,99614.66
2023-02-13T10:45:07.866Z,99612.53
2023-02-13T10:47:40.380Z,99608.69
2023-02-13T10:50:16.146Z,99603.94
2023-02-13T10:52:57.737Z,99600.91
2023-02-13T10:55:37.174Z,99594.25
2023-02-13T10:58:18.882Z,99591.06
2023-02-13T11:00:55.592Z,99599.34
2023-02-13T11:03:26.203Z,99596.72
2023-02-13T11:05:54.421Z,99573.50
2023-02-13T11:08:25.529Z,99586.94
2023-02-13T11:10:52.506Z,99578.19
2023-02-13T11:13:24.372Z,99574.84
2023-02-13T11:16:10.467Z,99581.13
2023-02-13T11:18:44.236Z,99573.25
2023-02-13T11:21:17.818Z,99561.47
2023-02-13T11:23:45.919Z,99575.19
2023-02-13T11:26:14.263Z,99571.19
2023-02-13T11:28:54.555Z,99558.44
2023-02-13T11:31:35.632Z,99566.44
2023-02-13T11:34:25.534Z,99565.69
2023-02-13T11:36:54.764Z,99560.19
2023-02-13T11:39:23.043Z,99555.91
2023-02-13T11:41:53.010Z,99547.22
2023-02-13T11:44:31.202Z,99543.13
2023-02-13T11:47:03.181Z,99538.56
2023-02-13T11:49:39.558Z,99540.56
2023-02-13T11:52:13.065Z,99536.03
2023-02-13T11:54:44.370Z,99537.56
2023-02-13T11:57:29.822Z,99529.09
2023-02-13T11:59:56.905Z,99530.13
2023-02-13T12:02:26.443Z,99523.69
2023-02-13T12:05:13.981Z,99524.06
2023-02-13T12:07:41.692Z,99529.53
2023-02-13T12:10:31.360Z,99520.38
2023-02-13T12:13:06.165Z,99505.84
2023-02-13T12:15:37.228Z,99516.44
2023-02-13T12:18:24.923Z,99505.59
2023-02-13T12:21:00.740Z,99511.41
2023-02-13T12:23:53.397Z,99469.28
2023-02-13T12:26:42.900Z,99507.91
2023-02-13T12:29:37.587Z,99503.75
2023-02-13T12:32:28.851Z,99504.16
2023-02-13T12:34:58.511Z,99500.22
2023-02-13T12:37:43.412Z,99498.09
2023-02-13T12:40:39.194Z,99490.41
2023-02-13T12:43:27.197Z,99483.81
2023-02-13T12:46:02.033Z,99490.34
2023-02-13T12:48:34.485Z,99484.94
2023-02-13T12:51:23.704Z,99485.59
2023-02-13T12:54:11.685Z,99481.66
2023-02-13T12:57:06.722Z,99468.84
2023-02-13T13:00:02.959Z,99466.03
2023-02-13T13:02:29.391Z,99467.97
2023-02-13T13:05:17.084Z,99465.25
2023-02-13T13:07:55.639Z,99461.56
2023-02-13T13:11:08.376Z,99456.44
2023-02-13T13:13:46.647Z,99450.19
2023-02-13T13:16:28.456Z,99455.03
2023-02-13T13:19:20.050Z,99453.19
2023-02-13T13:22:01.042Z,99456.53
2023-02-13T13:24:41.213Z,99447.31
2023-02-13T13:27:39.365Z,99441.84
2023-02-13T13:30:24.897Z,99439.47
2023-02-13T13:33:12.565Z,99432.34
2023-02-13T13:35:42.214Z,99439.81
2023-02-13T13:38:19.596Z,99433.63
2023-02-13T13:40:46.349Z,99425.81
2023-02-13T13:43:21.550Z,99432.94
2023-02-13T13:46:03.864Z,99432.28
2023-02-13T13:48:47.646Z,99426.94
2023-02-13T13:51:17.737Z,99424.88
2023-02-13T13:53:59.506Z,99427.63
2023-02-13T13:56:54.034Z,99431.06
2023-02-13T13:59:51.877Z,99424.94
2023-02-13T14:02:18.864Z,99421.78
2023-02-13T14:05:13.920Z,99423.94
2023-02-13T14:07:41.901Z,99421.38
2023-02-13T14:10:29.081Z,99422.16
2023-02-13T14:12:55.509Z,99417.47
2023-02-13T14:15:34.427Z,99425.25
2023-02-13T14:18:12.110Z,99410.91
2023-02-13T14:20:50.355Z,99421.19
2023-02-13T14:23:42.278Z,99412.09
2023-02-13T14:26:18.217Z,99414.06
2023-02-13T14:28:51.228Z,99408.69
2023-02-13T14:31:34.474Z,99413.16
2023-02-13T14:34:12.138Z,99411.22
2023-02-13T14:36:47.958Z,99396.53
2023-02-13T14:39:33.522Z,99407.78
2023-02-13T14:42:04.916Z,99392.38
2023-02-13T14:44:44.581Z,99394.47
2023-02-13T14:47:21.990Z,99369.50
2023-02-13T14:49:50.208Z,99395.47
2023-02-13T14:52:27.644Z,99402.06
2023-02-13T14:55:03.059Z,99403.06
2023-02-13T14:57:39.330Z,99395.28
2023-02-13T15:00:45.685Z,99398.91
2023-02-13T15:03:17.721Z,99399.66
2023-02-13T15:05:52.198Z,99394.88
2023-02-13T15:08:26.591Z,99371.13
2023-02-13T15:10:55.514Z,99390.34
2023-02-13T15:13:23.720Z,99387.69
2023-02-13T15:15:58.852Z,99400.97
2023-02-13T15:18:30.315Z,99383.75
2023-02-13T15:21:00.279Z,99392.66
2023-02-13T15:23:31.475Z,99380.44
2023-02-13T15:26:03.313Z,99398.47
2023-02-13T15:28:30.396Z,99390.78
2023-02-13T15:30:58.803Z,99394.72
2023-02-13T15:33:51.212Z,99397.63
2023-02-13T15:36:25.440Z,99399.19
2023-02-13T15:39:11.390Z,99406.50
2023-02-13T15:41:43.689Z,99389.25
2023-02-13T15:44:18.293Z,99395.66
2023-02-13T15:46:48.328Z,99395.22
2023-02-13T15:49:21.658Z,99378.19
2023-02-13T15:51:49.220Z,99384.72
2023-02-13T15:54:27.677Z,99400.94
2023-02-13T15:56:57.909Z,99405.34
2023-02-13T15:59:29.072Z,99397.19
2023-02-13T16:01:55.952Z,99401.06
2023-02-13T16:04:23.085Z,99397.44
2023-02-13T16:06:51.971Z,99406.03
2023-02-13T16:09:32.814Z,99390.31
2023-02-13T16:12:17.137Z,99402.13
2023-02-13T16:14:59.947Z,99367.41
2023-02-13T16:17:29.128Z,99378.50
2023-02-13T16:20:01.617Z,99407.94
2023-02-13T16:22:30.571Z,99405.03
2023-02-13T16:25:12.366Z,99407.22
2023-02-13T16:28:00.037Z,99412.97
2023-02-13T16:30:39.915Z,99386.75
2023-02-13T16:33:15.469Z,99415.44
2023-02-13T16:35:45.457Z,99425.56
2023-02-13T16:38:42.614Z,99415.97
2023-02-13T16:41:17.872Z,99428.56
2023-02-13T16:43:55.508Z,99392.53
2023-02-13T16:46:29.610Z,99421.13
2023-02-13T16:48:56.131Z,99430.66
2023-02-13T16:51:39.474Z,99425.03
2023-02-13T16:54:17.992Z,99432.72
2023-02-13T16:56:48.012Z,99431.34
2023-02-13T16:59:17.468Z,99428.66
2023-02-13T17:01:44.270Z,99438.13
2023-02-13T17:04:22.378Z,99434.53
2023-02-13T17:06:54.940Z,99432.97
2023-02-13T17:09:22.441Z,99435.50
2023-02-13T17:11:53.683Z,99443.72
2023-02-13T17:14:20.699Z,99431.56
2023-02-13T17:16:48.694Z,99436.50
2023-02-13T17:19:17.585Z,99433.84
2023-02-13T17:21:44.168Z,99435.59
2023-02-13T17:24:17.960Z,99431.31
2023-02-13T17:26:44.446Z,99455.63
2023-02-13T17:29:10.970Z,99439.81
2023-02-13T17:31:40.151Z,99429.25
2023-02-13T17:34:06.791Z,99462.34
2023-02-13T17:36:33.353Z,99467.03
2023-02-13T17:38:59.870Z,99454.41
2023-02-13T17:41:26.346Z,99452.66
2023-02-13T17:43:52.833Z,99466.56
2023-02-13T17:46:19.685Z,99461.84
2023-02-13T17:48:46.217Z,99467.31
2023-02-13T17:51:14.350Z,99473.53
2023-02-13T17:53:40.883Z,99459.72
2023-02-13T17:56:11.515Z,99471.31
2023-02-13T17:58:38.872Z,99446.72
2023-02-13T18:01:05.530Z,99464.50
2023-02-13T18:03:32.020Z,99475.13
2023-02-13T18:05:59.946Z,99480.13
2023-02-13T18:08:26.414Z,99456.13
2023-02-13T18:10:52.850Z,99480.56
2023-02-13T18:13:22.411Z,99416.81
2023-02-13T18:15:48.908Z,99484.84
2023-02-13T18:18:16.247Z,99444.03
2023-02-13T18:20:48.746Z,99464.28
2023-02-13T18:23:17.054Z,99483.28
2023-02-13T18:25:43.536Z,99447.03
2023-02-13T18:28:12.948Z,99466.56
2023-02-13T18:30:42.879Z,99437.63
2023-02-13T18:33:12.114Z,99465.84
2023-02-13T18:35:41.385Z,99435.56
2023-02-13T18:38:09.888Z,99446.16
2023-02-13T18:40:36.368Z,99447.78
2023-02-13T18:43:02.932Z,99470.22
2023-02-13T18:45:29.653Z,99451.34
2023-02-13T18:47:59.286Z,99477.19
2023-02-13T18:50:25.788Z,99478.22
2023-02-13T18:52:52.333Z,99467.88
2023-02-13T18:55:18.771Z,99467.94
2023-02-13T18:57:45.570Z,99476.44
2023-02-13T19:00:15.501Z,99435.56
2023-02-13T19:02:42.145Z,99482.56
2023-02-13T19:05:13.036Z,99454.38
2023-02-13T19:07:42.607Z,99492.47
2023-02-13T19:10:15.714Z,99446.72
2023-02-13T19:12:42.587Z,99491.03
2023-02-13T19:15:13.426Z,99484.91
2023-02-13T19:17:42.973Z,99486.50
2023-02-13T19:20:14.405Z,99494.44
2023-02-13T19:22:43.104Z,99456.34
2023-02-13T19:25:11.458Z,99483.22
2023-02-13T19:27:57.007Z,99431.72
2023-02-13T19:30:25.465Z,99427.88
2023-02-13T19:32:54.385Z,99443.75
2023-02-13T19:35:21.078Z,99497.69
2023-02-13T19:37:49.153Z,99421.06
2023-02-13T19:40:15.742Z,99465.09
2023-02-13T19:42:45.101Z,99494.28
2023-02-13T19:45:14.576Z,99488.13
2023-02-13T19:47:44.209Z,99479.34
2023-02-13T19:50:16.554Z,99475.00
2023-02-13T19:52:46.479Z,99454.13
2023-02-13T19:55:13.205Z,99483.50
2023-02-13T19:57:39.783Z,99486.00
2023-02-13T20:00:09.341Z,99493.88
2023-02-13T20:02:37.945Z,99503.03
2023-02-13T20:05:08.784Z,99503.81
2023-02-13T20:07:35.318Z,99512.81
2023-02-13T20:10:01.872Z,99502.88
2023-02-13T20:12:28.488Z,99515.31
2023-02-13T20:14:56.589Z,99498.44
2023-02-13T20:17:23.188Z,99517.97
2023-02-13T20:19:51.520Z,99522.94
2023-02-13T20:22:19.300Z,99505.09
2023-02-13T20:24:47.174Z,99523.94
2023-02-13T20:27:14.311Z,99529.31
2023-02-13T20:29:45.023Z,99521.22
2023-02-13T20:32:14.582Z,99517.06
2023-02-13T20:34:58.753Z,99519.44
2023-02-13T20:37:26.210Z,99520.72
2023-02-13T20:39:52.648Z,99530.47
2023-02-13T20:42:19.128Z,99539.84
2023-02-13T20:44:46.771Z,99529.34
2023-02-13T20:47:13.240Z,99537.34
2023-02-13T20:49:42.113Z,99550.63
2023-02-13T20:52:08.826Z,99520.34
2023-02-13T20:54:35.288Z,99546.03
2023-02-13T20:57:01.788Z,99534.75
2023-02-13T20:59:28.398Z,99542.97
2023-02-13T21:01:54.867Z,99536.00
2023-02-13T21:04:21.358Z,99542.03
2023-02-13T21:06:48.608Z,99535.50
2023-02-13T21:09:15.439Z,99549.06
2023-02-13T21:11:45.212Z,99530.75
2023-02-13T21:14:14.820Z,99556.03
2023-02-13T21:16:44.046Z,99545.16
2023-02-13T21:19:17.203Z,99537.28
2023-02-13T21:21:44.323Z,99545.91
2023-02-13T21:24:18.432Z,99539.81
2023-02-13T21:26:46.774Z,99537.91
2023-02-13T21:29:13.484Z,99552.53
2023-02-13T21:31:49.458Z,99532.97
2023-02-13T21:34:17.397Z,99531.91
2023-02-13T21:36:44.335Z,99541.69
2023-02-13T21:39:14.729Z,99550.22
2023-02-13T21:41:45.332Z,99533.44
2023-02-13T21:44:17.362Z,99553.16
2023-02-13T21:46:45.064Z,99552.22
2023-02-13T21:49:17.539Z,99559.41
2023-02-13T21:51:45.116Z,99560.53
2023-02-13T21:54:14.874Z,99557.19
2023-02-13T21:56:43.504Z,99522.06
2023-02-13T21:59:20.140Z,99543.22
2023-02-13T22:01:54.923Z,99557.03
2023-02-13T22:04:21.535Z,99558.03
2023-02-13T22:06:51.004Z,99554.38
2023-02-13T22:09:26.979Z,99544.81
2023-02-13T22:11:54.978Z,99539.75
2023-02-13T22:14:22.317Z,99537.09
2023-02-13T22:16:51.301Z,99534.56
2023-02-13T22:19:18.284Z,99548.34
2023-02-13T22:21:45.196Z,99525.56
2023-02-13T22:24:14.963Z,99540.47
2023-02-13T22:26:47.211Z,99551.25
2023-02-13T22:29:17.943Z,99556.38
2023-02-13T22:31:47.889Z,99556.72
2023-02-13T22:34:17.936Z,99553.03
2023-02-13T22:36:45.723Z,99538.03
2023-02-13T22:39:13.679Z,99553.50
2023-02-13T22:41:41.007Z,99560.94
2023-02-13T22:44:07.698Z,99554.81
2023-02-13T22:46:35.131Z,99558.75
2023-02-13T22:49:02.465Z,99537.69
2023-02-13T22:51:35.073Z,99548.91
2023-02-13T22:54:02.510Z,99550.81
2023-02-13T22:56:30.937Z,99554.44
2023-02-13T22:58:58.857Z,99564.00
2023-02-13T23:01:27.338Z,99553.97
2023-02-13T23:03:54.568Z,99537.03
2023-02-13T23:06:21.904Z,99562.50
2023-02-13T23:08:53.407Z,99554.16
2023-02-13T23:11:43.152Z,99548.09
2023-02-13T23:14:10.316Z,99553.72
2023-02-13T23:16:58.157Z,99557.22
2023-02-13T23:19:25.530Z,99558.25
2023-02-13T23:21:52.010Z,99550.63
2023-02-13T23:24:18.636Z,99571.31
2023-02-13T23:26:47.594Z,99571.56
2023-02-13T23:29:14.043Z,99562.84
2023-02-13T23:31:40.593Z,99566.03
2023-02-13T23:34:07.348Z,99562.56
2023-02-13T23:36:34.813Z,99550.47
2023-02-13T23:39:01.300Z,99542.78
2023-02-13T23:41:28.764Z,99562.31
2023-02-13T23:43:55.347Z,99558.28
2023-02-13T23:46:21.998Z,99558.16
2023-02-13T23:48:51.662Z,99567.47
2023-02-13T23:51:23.464Z,99555.38
2023-02-13T23:53:49.993Z,99531.16
2023-02-13T23:56:18.616Z,99561.84
2023-02-13T23:58:45.094Z,99556.09
